createdAt,value
2023-03-06T00:03:59.763Z,22.20
2023-03-06T00:08:59.241Z,18.20
2023-03-06T00:13:59.928Z,23.40
2023-03-06T00:18:58.814Z,25.70
2023-03-06T00:23:58.158Z,26.50
2023-03-06T00:28:57.421Z,24.00
2023-03-06T00:33:56.748Z,19.30
2023-03-06T00:38:56.331Z,17.10
2023-03-06T00:43:56.890Z,13.50
2023-03-06T00:48:55.738Z,26.10
2023-03-06T00:53:55.252Z,30.30
2023-03-06T00:58:55.466Z,26.30
2023-03-06T01:03:57.703Z,16.20
2023-03-06T01:08:56.599Z,23.10
2023-03-06T01:13:56.944Z,22.60
2023-03-06T01:18:55.801Z,27.90
2023-03-06T01:23:55.986Z,22.80
2023-03-06T01:28:57.487Z,14.40
2023-03-06T01:33:56.762Z,24.30
2023-03-06T01:38:55.961Z,26.70
2023-03-06T01:43:55.435Z,24.90
2023-03-06T01:48:59.963Z,28.00
2023-03-06T01:54:01.796Z,26.80
2023-03-06T01:59:02.307Z,14.00
2023-03-06T02:04:02.904Z,24.10
2023-03-06T02:09:02.590Z,26.10
2023-03-06T02:14:01.737Z,23.70
2023-03-06T02:19:03.337Z,19.80
2023-03-06T02:24:29.033Z,26.10
2023-03-06T02:29:31.715Z,26.10
2023-03-06T02:34:57.571Z,25.50
2023-03-06T02:40:09.388Z,21.10
2023-03-06T02:45:14.325Z,24.40
2023-03-06T02:50:15.167Z,20.40
2023-03-06T02:55:15.948Z,15.60
2023-03-06T03:00:18.383Z,9.10
2023-03-06T03:05:17.853Z,7.80
2023-03-06T03:10:20.344Z,18.40
2023-03-06T03:15:19.764Z,16.10
2023-03-06T03:20:24.116Z,22.60
2023-03-06T03:25:26.024Z,21.50
2023-03-06T03:30:27.214Z,21.00
2023-03-06T03:35:27.114Z,20.10
2023-03-06T03:40:29.707Z,17.00
2023-03-06T03:45:30.285Z,19.20
2023-03-06T03:50:30.326Z,15.60
2023-03-06T03:55:31.178Z,19.90
2023-03-06T04:00:31.229Z,19.30
2023-03-06T04:05:37.444Z,16.70
2023-03-06T04:10:39.978Z,20.40
2023-03-06T04:15:40.426Z,14.60
2023-03-06T04:20:41.409Z,16.30
2023-03-06T04:25:42.082Z,19.20
2023-03-06T04:30:44.099Z,18.50
2023-03-06T04:35:44.319Z,14.70
2023-03-06T04:40:50.333Z,19.70
2023-03-06T04:45:49.395Z,19.60
2023-03-06T04:50:48.868Z,22.50
2023-03-06T04:55:47.928Z,19.20
2023-03-06T05:00:47.693Z,16.50
2023-03-06T05:05:46.356Z,21.90
2023-03-06T05:10:46.074Z,26.60
2023-03-06T05:15:46.662Z,24.20
2023-03-06T05:20:45.724Z,20.70
2023-03-06T05:25:45.653Z,13.80
2023-03-06T05:30:45.798Z,25.10
2023-03-06T05:35:50.042Z,17.60
2023-03-06T05:40:50.153Z,23.00
2023-03-06T05:45:50.391Z,25.90
2023-03-06T05:50:58.971Z,27.50
2023-03-06T05:56:03.994Z,25.70
2023-03-06T06:01:09.647Z,14.30
2023-03-06T06:06:12.789Z,24.50
2023-03-06T06:11:15.051Z,23.90
2023-03-06T06:16:17.157Z,19.20
2023-03-06T06:21:17.356Z,29.60
2023-03-06T06:26:16.806Z,24.60
2023-03-06T06:31:16.859Z,24.50
2023-03-06T06:36:24.177Z,26.60
2023-03-06T06:52:06.279Z,25.20
2023-03-06T06:57:05.920Z,21.80
2023-03-06T07:02:06.223Z,25.20
2023-03-06T07:07:04.791Z,25.90
2023-03-06T07:12:04.010Z,26.80
2023-03-06T07:17:03.260Z,23.10
2023-03-06T07:22:02.851Z,22.60
2023-03-06T07:27:01.778Z,22.60
2023-03-06T07:32:01.384Z,26.30
2023-03-06T07:37:00.308Z,21.20
2023-03-06T07:42:00.139Z,18.80
2023-03-06T07:46:59.972Z,20.50
2023-03-06T07:51:59.400Z,19.10
2023-03-06T07:56:58.015Z,16.40
2023-03-06T08:01:59.232Z,15.50
2023-03-06T08:07:00.055Z,17.50
2023-03-06T08:12:00.145Z,16.10
2023-03-06T08:17:00.896Z,14.90
2023-03-06T08:21:59.842Z,12.30
2023-03-06T08:26:59.001Z,14.00
2023-03-06T08:31:58.693Z,16.60
2023-03-06T08:36:57.718Z,14.20
2023-03-06T08:41:57.144Z,13.90
2023-03-06T08:46:56.569Z,15.80
2023-03-06T08:51:56.285Z,12.20
2023-03-06T08:56:55.555Z,12.20
2023-03-06T09:01:55.360Z,14.10
2023-03-06T09:06:55.658Z,15.20
2023-03-06T09:11:56.522Z,13.20
2023-03-06T09:16:56.089Z,13.00
2023-03-06T09:21:55.429Z,11.40
2023-03-06T09:26:56.158Z,14.60
2023-03-06T09:31:55.367Z,14.90
2023-03-06T09:36:57.062Z,13.90
2023-03-06T09:41:58.990Z,14.70
2023-03-06T09:47:16.935Z,11.10
2023-03-06T09:52:36.222Z,11.90
2023-03-06T09:57:39.565Z,16.00
2023-03-06T10:02:45.494Z,15.00
2023-03-06T10:07:54.414Z,12.30
2023-03-06T10:13:04.617Z,11.00
2023-03-06T10:18:07.427Z,11.90
2023-03-06T10:23:26.557Z,13.20
2023-03-06T10:28:36.975Z,7.20
2023-03-06T10:33:54.770Z,8.90
2023-03-06T10:38:54.605Z,10.10
2023-03-06T10:49:31.566Z,11.00
2023-03-06T10:54:32.595Z,8.40
2023-03-06T10:59:33.204Z,13.50
2023-03-06T11:04:35.988Z,13.60
2023-03-06T11:09:36.360Z,9.90
2023-03-06T11:14:36.311Z,11.00
2023-03-06T11:19:35.977Z,11.20
2023-03-06T11:24:43.846Z,9.80
2023-03-06T11:29:48.030Z,9.70
2023-03-06T11:34:53.766Z,14.00
2023-03-06T11:40:05.423Z,12.00
2023-03-06T11:45:26.039Z,5.80
2023-03-06T11:50:36.003Z,10.70
2023-03-06T11:56:23.008Z,13.20
2023-03-06T12:01:33.866Z,13.00
2023-03-06T12:06:49.777Z,11.00
2023-03-06T12:11:59.677Z,14.80
2023-03-06T12:17:32.979Z,8.40
2023-03-06T12:22:57.839Z,8.00
2023-03-06T12:28:24.691Z,8.10
2023-03-06T12:33:37.886Z,10.50
2023-03-06T12:39:17.780Z,8.90
2023-03-06T12:45:28.619Z,8.80
2023-03-06T12:50:31.519Z,10.00
2023-03-06T12:55:33.249Z,9.70
2023-03-06T13:01:07.586Z,8.70
2023-03-06T13:06:34.139Z,7.90
2023-03-06T13:12:00.190Z,13.60
2023-03-06T13:17:39.268Z,15.80
2023-03-06T13:22:38.655Z,13.20
2023-03-06T13:28:06.067Z,11.20
2023-03-06T13:33:26.346Z,14.30
2023-03-06T13:38:59.749Z,11.00
2023-03-06T13:44:02.206Z,12.30
2023-03-06T13:49:25.239Z,12.90
2023-03-06T13:54:48.243Z,15.70
2023-03-06T14:00:23.249Z,14.10
2023-03-06T14:05:23.135Z,14.70
2023-03-06T14:10:32.538Z,16.30
2023-03-06T14:15:43.430Z,17.90
2023-03-06T14:20:50.496Z,20.50
2023-03-06T14:25:56.223Z,18.00
2023-03-06T14:30:58.265Z,20.90
2023-03-06T14:36:09.714Z,21.40
2023-03-06T14:41:13.024Z,21.80
2023-03-06T14:46:24.659Z,30.40
2023-03-06T14:51:26.991Z,27.00
2023-03-06T14:56:29.288Z,24.20
2023-03-06T15:01:36.289Z,24.40
2023-03-06T15:06:43.595Z,23.80
2023-03-06T15:17:32.585Z,17.20
2023-03-06T15:22:37.982Z,23.00
2023-03-06T15:27:37.722Z,27.70
2023-03-06T15:32:42.567Z,23.20
2023-03-06T15:37:42.013Z,19.50
2023-03-06T15:42:43.628Z,17.50
2023-03-06T15:47:45.142Z,21.10
2023-03-06T15:52:44.993Z,18.90
2023-03-06T15:57:52.245Z,24.50
2023-03-06T16:02:54.102Z,26.30
2023-03-06T16:07:53.362Z,20.10
2023-03-06T16:12:57.039Z,26.50
2023-03-06T16:17:56.324Z,22.80
2023-03-06T16:22:56.093Z,24.30
2023-03-06T16:27:59.595Z,29.70
2023-03-06T16:32:59.223Z,23.10
2023-03-06T16:37:58.835Z,31.30
2023-03-06T16:42:59.133Z,23.00
2023-03-06T16:47:59.433Z,24.90
2023-03-06T16:53:01.033Z,27.80
2023-03-06T16:58:00.583Z,30.20
2023-03-06T17:03:00.869Z,33.80
2023-03-06T17:08:01.157Z,36.20
2023-03-06T17:13:03.321Z,31.80
2023-03-06T17:18:03.881Z,29.30
2023-03-06T17:23:04.889Z,35.10
2023-03-06T17:28:05.069Z,15.80
2023-03-06T17:33:07.990Z,30.80
2023-03-06T17:38:07.276Z,30.80
2023-03-06T17:43:06.119Z,33.40
2023-03-06T17:48:05.608Z,32.10
2023-03-06T17:53:06.036Z,30.20
2023-03-06T17:58:05.253Z,31.40
2023-03-06T18:03:05.106Z,32.90
2023-03-06T18:08:05.055Z,35.20
2023-03-06T18:13:03.664Z,26.40
2023-03-06T18:18:02.805Z,18.90
2023-03-06T18:23:03.841Z,18.50
2023-03-06T18:28:03.219Z,26.00
2023-03-06T18:33:02.546Z,21.50
2023-03-06T18:38:02.677Z,20.90
2023-03-06T18:43:02.036Z,18.20
2023-03-06T18:48:00.680Z,30.20
2023-03-06T18:52:59.481Z,30.00
2023-03-06T18:58:00.305Z,25.50
2023-03-06T19:02:59.714Z,29.50
2023-03-06T19:07:59.525Z,30.10
2023-03-06T19:12:59.057Z,13.60
2023-03-06T19:17:58.754Z,38.10
2023-03-06T19:22:58.535Z,32.20
2023-03-06T19:27:58.308Z,25.80
2023-03-06T19:32:58.437Z,24.00
2023-03-06T19:37:57.873Z,30.90
2023-03-06T19:43:00.908Z,29.60
2023-03-06T19:48:01.878Z,30.20
2023-03-06T19:53:02.646Z,13.60
2023-03-06T19:58:02.768Z,29.50
2023-03-06T20:03:02.882Z,33.90
2023-03-06T20:08:02.619Z,26.30
2023-03-06T20:13:02.376Z,33.40
2023-03-06T20:18:04.256Z,31.40
2023-03-06T20:23:04.812Z,25.20
2023-03-06T20:28:04.476Z,26.20
2023-03-06T20:33:04.011Z,22.90
2023-03-06T20:38:03.202Z,23.60
2023-03-06T20:43:02.247Z,19.20
2023-03-06T20:48:01.348Z,19.90
2023-03-06T20:53:02.366Z,26.70
2023-03-06T20:58:02.011Z,23.70
2023-03-06T21:03:01.369Z,20.40
2023-03-06T21:08:00.997Z,19.30
2023-03-06T21:13:00.526Z,21.60
2023-03-06T21:17:59.765Z,21.70
2023-03-06T21:23:02.073Z,17.60
2023-03-06T21:28:01.179Z,17.10
2023-03-06T21:33:00.779Z,18.20
2023-03-06T21:37:59.929Z,17.50
2023-03-06T21:42:59.550Z,14.00
2023-03-06T21:47:59.299Z,23.30
2023-03-06T21:53:00.878Z,21.10
2023-03-06T21:58:00.358Z,23.30
2023-03-06T22:02:59.919Z,22.70
2023-03-06T22:07:59.261Z,20.30
2023-03-06T22:12:58.765Z,21.20
2023-03-06T22:17:58.020Z,27.20
2023-03-06T22:22:56.890Z,24.10
2023-03-06T22:27:55.923Z,20.10
2023-03-06T22:32:57.059Z,22.50
2023-03-06T22:37:56.500Z,18.10
2023-03-06T22:42:56.008Z,16.10
2023-03-06T22:48:02.384Z,27.80
2023-03-06T22:53:08.625Z,31.70
2023-03-06T22:58:07.884Z,26.60
2023-03-06T23:03:07.463Z,33.70
2023-03-06T23:08:07.097Z,19.50
2023-03-06T23:13:05.608Z,32.10
2023-03-06T23:18:24.049Z,19.70
2023-03-06T23:23:44.316Z,16.40
2023-03-06T23:28:44.530Z,25.20
2023-03-06T23:33:44.266Z,32.40
2023-03-06T23:38:44.312Z,26.80
2023-03-06T23:43:44.073Z,37.10
2023-03-06T23:48:46.153Z,39.90
2023-03-06T23:53:45.306Z,38.40
2023-03-06T23:58:45.672Z,24.50
